Menu Close Menu
Station Historical Data
Daily Summary for April 19, 2017 Units:  Metric    English   Both
« Previous Day
Next Day »
Daily Weekly Monthly Yearly Custom
  High: Low: Average:
Temperature: 25.3 °C 16.4 °C 19.2 °C
Dew Point: 17.5 °C 13.6 °C 15.1 °C
Humidity: 87% 60% 78%
Wind Speed: 1.6km/h 0km/h 0.2km/h
Wind Gust: 4.8km/h - -
Wind- - WNW
Pressure: 1026 hPa 1022.6 hPa -
Precipitation: 0 mm    
Historical Graphs
 
 
Tabular Data for April 19, 2017
Time Temperature Dew Point Pressure Wind Wind Speed Wind Gust Humidity Rainfall Rate (Hourly) solar Conditions
00:00 18.3 °C 14.8 °C 1024.6 hPa Calm   4.8 km/h 80% 0 mm WeatherDisplay:10.37 W/m2 SCT
00:15 18.2 °C 14.9 °C 1024.6 hPa Calm   3.2 km/h 81% 0 mm WeatherDisplay:10.37 W/m2 SCT
00:30 18.2 °C 14.8 °C 1024.6 hPa Calm   1.6 km/h 81% 0 mm WeatherDisplay:10.37 W/m2 SCT
00:45 18.1 °C 14.9 °C 1024.6 hPa Calm   3.2 km/h 82% 0 mm WeatherDisplay:10.37 W/m2 SCT
01:00 17.9 °C 14.9 °C 1024.9 hPa Calm   1.6 km/h 83% 0 mm WeatherDisplay:10.37 W/m2 SCT
01:15 17.8 °C 15.1 °C 1024.9 hPa Calm     84% 0 mm WeatherDisplay:10.37 W/m2 SCT
01:30 17.7 °C 15 °C 1024.6 hPa Calm   1.6 km/h 84% 0 mm WeatherDisplay:10.37 W/m2 SCT
01:45 17.7 °C 15 °C 1024.3 hPa Calm   1.6 km/h 84% 0 mm WeatherDisplay:10.37 W/m2 SCT
02:00 17.7 °C 14.7 °C 1024.3 hPa Calm   3.2 km/h 83% 0 mm WeatherDisplay:10.37 W/m2 SCT
02:15 17.6 °C 14.8 °C 1023.9 hPa Calm   3.2 km/h 84% 0 mm WeatherDisplay:10.37 W/m2 SCT
02:30 17.4 °C 14.7 °C 1023.9 hPa Calm   3.2 km/h 84% 0 mm WeatherDisplay:10.37 W/m2 SCT
02:45 17.2 °C 14.5 °C 1023.9 hPa Calm   1.6 km/h 84% 0 mm WeatherDisplay:10.37 W/m2 SCT
03:00 17.1 °C 14.4 °C 1023.6 hPa Calm   3.2 km/h 84% 0 mm WeatherDisplay:10.37 W/m2 SCT
03:15 17.1 °C 14.5 °C 1023.6 hPa WNW 1.6 km/h 4.8 km/h 85% 0 mm WeatherDisplay:10.37 W/m2 SCT
03:30 17 °C 14.3 °C 1023.6 hPa Calm   4.8 km/h 84% 0 mm WeatherDisplay:10.37 W/m2 SCT
03:45 16.9 °C 14.2 °C 1023.2 hPa WNW 1.6 km/h 3.2 km/h 84% 0 mm WeatherDisplay:10.37 W/m2 SCT
04:00 16.4 °C 13.6 °C 1023.6 hPa Calm   1.6 km/h 83% 0 mm WeatherDisplay:10.37 W/m2 SCT
04:15 16.4 °C 13.6 °C 1023.6 hPa Calm     83% 0 mm WeatherDisplay:10.37 W/m2 SCT
04:30 16.4 °C 13.6 °C 1023.6 hPa Calm     83% 0 mm WeatherDisplay:10.37 W/m2 SCT
04:45 16.4 °C 13.6 °C 1023.6 hPa Calm     83% 0 mm WeatherDisplay:10.37 W/m2 SCT
05:00 16.4 °C 13.6 °C 1023.6 hPa Calm     83% 0 mm WeatherDisplay:10.37 W/m2 SCT
05:15 16.4 °C 13.6 °C 1023.6 hPa Calm     83% 0 mm WeatherDisplay:10.37 W/m2 SCT
05:30 16.4 °C 13.6 °C 1023.9 hPa Calm     83% 0 mm WeatherDisplay:10.37 W/m2 SCT
05:45 16.4 °C 13.6 °C 1023.9 hPa Calm     83% 0 mm WeatherDisplay:10.37 W/m2 SCT
06:00 16.4 °C 13.6 °C 1023.9 hPa Calm     83% 0 mm WeatherDisplay:10.37 W/m2 SCT
06:15 16.4 °C 13.6 °C 1024.3 hPa Calm     83% 0 mm WeatherDisplay:10.37 W/m2 SCT
06:30 16.4 °C 13.6 °C 1024.3 hPa Calm     83% 0 mm WeatherDisplay:10.37 W/m2 SCT
06:45 16.4 °C 13.6 °C 1024.3 hPa Calm     83% 0 mm WeatherDisplay:10.37 W/m2 SCT
07:00 16.4 °C 13.6 °C 1024.6 hPa Calm     83% 0 mm WeatherDisplay:10.37 W/m2 SCT
07:15 16.4 °C 13.6 °C 1024.6 hPa Calm     83% 0 mm WeatherDisplay:10.37 W/m2 SCT
07:30 16.4 °C 13.6 °C 1024.6 hPa Calm     83% 0 mm WeatherDisplay:10.37 W/m2 SCT
07:45 16.4 °C 13.6 °C 1024.9 hPa Calm     83% 0 mm WeatherDisplay:10.37 W/m2 SCT
08:00 16.4 °C 13.6 °C 1024.9 hPa Calm     83% 0 mm WeatherDisplay:10.37 W/m2 SCT
08:15 16.4 °C 13.6 °C 1024.9 hPa Calm     83% 0 mm WeatherDisplay:10.37 W/m2 SCT
08:30 16.4 °C 13.6 °C 1024.9 hPa Calm     83% 0 mm WeatherDisplay:10.37 W/m2 SCT
08:45 16.4 °C 13.6 °C 1024.9 hPa Calm     83% 0 mm WeatherDisplay:10.37 W/m2 SCT
09:00 16.4 °C 13.6 °C 1025.3 hPa Calm     83% 0 mm WeatherDisplay:10.37 W/m2 SCT
09:15 16.4 °C 13.6 °C 1025.3 hPa Calm     83% 0 mm WeatherDisplay:10.37 W/m2 SCT
09:30 16.4 °C 13.6 °C 1025.3 hPa Calm     83% 0 mm WeatherDisplay:10.37 W/m2 SCT
09:45 16.4 °C 13.6 °C 1025.3 hPa Calm     83% 0 mm WeatherDisplay:10.37 W/m2 SCT
10:00 17.2 °C 15.1 °C 1025.3 hPa WNW 1.6 km/h 4.8 km/h 87% 0 mm WeatherDisplay:10.37 W/m2 SCT
10:15 17.4 °C 15.2 °C 1025.6 hPa Calm   3.2 km/h 87% 0 mm WeatherDisplay:10.37 W/m2 SCT
10:30 17.7 °C 15.5 °C 1025.6 hPa Calm   1.6 km/h 87% 0 mm WeatherDisplay:10.37 W/m2 SCT
10:45 17.9 °C 15.4 °C 1025.6 hPa Calm   1.6 km/h 85% 0 mm WeatherDisplay:10.37 W/m2 SCT
11:00 18.3 °C 15.5 °C 1025.6 hPa Calm   4.8 km/h 84% 0 mm WeatherDisplay:10.37 W/m2 SCT
11:15 18.6 °C 15.8 °C 1025.6 hPa Calm   1.6 km/h 84% 0 mm WeatherDisplay:10.37 W/m2 SCT
11:30 18.7 °C 15.7 °C 1026 hPa Calm   1.6 km/h 83% 0 mm WeatherDisplay:10.37 W/m2 SCT
11:45 18.7 °C 15.8 °C 1026 hPa Calm   3.2 km/h 83% 0 mm WeatherDisplay:10.37 W/m2 SCT
12:00 18.9 °C 15.9 °C 1026 hPa Calm   3.2 km/h 83% 0 mm WeatherDisplay:10.37 W/m2 SCT
12:15 19.2 °C 16.1 °C 1026 hPa Calm   4.8 km/h 82% 0 mm WeatherDisplay:10.37 W/m2 SCT
12:30 19.7 °C 16.3 °C 1025.6 hPa Calm   3.2 km/h 81% 0 mm WeatherDisplay:10.37 W/m2 SCT
12:45 20.5 °C 16.7 °C 1025.6 hPa Calm   3.2 km/h 79% 0 mm WeatherDisplay:10.37 W/m2 SCT
13:00 21.2 °C 16.8 °C 1025.3 hPa Calm   3.2 km/h 76% 0 mm WeatherDisplay:10.37 W/m2 SCT
13:15 22.2 °C 16.9 °C 1024.9 hPa Calm   4.8 km/h 72% 0 mm WeatherDisplay:10.37 W/m2 SCT
13:30 23.1 °C 17.1 °C 1024.9 hPa Calm   3.2 km/h 69% 0 mm WeatherDisplay:10.37 W/m2 SCT
13:45 23.6 °C 17.3 °C 1024.9 hPa Calm   3.2 km/h 68% 0 mm WeatherDisplay:10.37 W/m2 SCT
14:00 24.1 °C 17.1 °C 1024.6 hPa West 1.6 km/h 3.2 km/h 65% 0 mm WeatherDisplay:10.37 W/m2 SCT
14:15 24.3 °C 17.3 °C 1024.6 hPa West 1.6 km/h 3.2 km/h 65% 0 mm WeatherDisplay:10.37 W/m2 SCT
14:30 24.8 °C 16.5 °C 1024.6 hPa Calm   4.8 km/h 60% 0 mm WeatherDisplay:10.37 W/m2 SCT
14:45 24.8 °C 16.8 °C 1024.3 hPa WNW 1.6 km/h 3.2 km/h 61% 0 mm WeatherDisplay:10.37 W/m2 SCT
15:00 25.1 °C 17.5 °C 1024.3 hPa Calm   4.8 km/h 63% 0 mm WeatherDisplay:10.37 W/m2 SCT
15:15 24.4 °C 16.9 °C 1023.9 hPa Calm   4.8 km/h 63% 0 mm WeatherDisplay:10.37 W/m2 SCT
15:30 24.4 °C 16.9 °C 1023.6 hPa Calm   4.8 km/h 63% 0 mm WeatherDisplay:10.37 W/m2 SCT
15:45 24.9 °C 16.9 °C 1023.6 hPa Calm   3.2 km/h 61% 0 mm WeatherDisplay:10.37 W/m2 SCT
16:00 25.1 °C 16.8 °C 1023.2 hPa Calm   3.2 km/h 60% 0 mm WeatherDisplay:10.37 W/m2 SCT
16:15 25.3 °C 16.9 °C 1022.9 hPa WNW 1.6 km/h 3.2 km/h 60% 0 mm WeatherDisplay:10.37 W/m2 SCT
16:30 24.9 °C 16.6 °C 1022.9 hPa NW 1.6 km/h 4.8 km/h 60% 0 mm WeatherDisplay:10.37 W/m2 SCT
16:45 25.2 °C 17.1 °C 1022.6 hPa Calm   1.6 km/h 61% 0 mm WeatherDisplay:10.37 W/m2 SCT
17:00 25.1 °C 16.8 °C 1022.6 hPa Calm   4.8 km/h 60% 0 mm WeatherDisplay:10.37 W/m2 SCT
17:15 25 °C 16.7 °C 1022.6 hPa Calm   1.6 km/h 60% 0 mm WeatherDisplay:10.37 W/m2 SCT
17:30 25 °C 16.7 °C 1022.6 hPa Calm   3.2 km/h 60% 0 mm WeatherDisplay:10.37 W/m2 SCT
23:45 19.6 °C 16.9 °C 1023.9 hPa Calm   1.6 km/h 85% 0 mm WeatherDisplay:10.37 W/m2 SCT
Piedmont Bend
Compliments of Weather Underground - 4 mb